sensor_id;sensor_type;location;lat;lon;timestamp;pressure;altitude;pressure_sealevel;temperature;humidity
10587;BME280;5341;47.606;7.576;2023-11-21T00:00:01;98390.38;;;12.07;69.31
10587;BME280;5341;47.606;7.576;2023-11-21T00:02:39;98382.34;;;12.07;69.19
10587;BME280;5341;47.606;7.576;2023-11-21T00:05:07;98379.66;;;12.07;68.81
10587;BME280;5341;47.606;7.576;2023-11-21T00:07:37;98385.84;;;12.08;69.09
10587;BME280;5341;47.606;7.576;2023-11-21T00:10:05;98388.53;;;12.08;69.02
10587;BME280;5341;47.606;7.576;2023-11-21T00:12:33;98381.31;;;12.08;68.77
10587;BME280;5341;47.606;7.576;2023-11-21T00:15:02;98378.63;;;12.08;69.50
10587;BME280;5341;47.606;7.576;2023-11-21T00:17:31;98380.69;;;12.06;69.36
10587;BME280;5341;47.606;7.576;2023-11-21T00:19:58;98378.03;;;12.06;68.96
10587;BME280;5341;47.606;7.576;2023-11-21T00:22:26;98373.91;;;12.03;69.03
10587;BME280;5341;47.606;7.576;2023-11-21T00:24:55;98367.50;;;12.05;69.56
10587;BME280;5341;47.606;7.576;2023-11-21T00:27:23;98370.38;;;12.03;69.10
10587;BME280;5341;47.606;7.576;2023-11-21T00:29:50;98365.03;;;12.03;69.51
10587;BME280;5341;47.606;7.576;2023-11-21T00:32:18;98365.22;;;12.01;68.93
10587;BME280;5341;47.606;7.576;2023-11-21T00:34:45;98360.06;;;12.00;68.94
10587;BME280;5341;47.606;7.576;2023-11-21T00:37:13;98363.75;;;11.99;69.42
10587;BME280;5341;47.606;7.576;2023-11-21T00:39:42;98355.09;;;11.97;68.98
10587;BME280;5341;47.606;7.576;2023-11-21T00:42:16;98350.56;;;11.97;69.19
10587;BME280;5341;47.606;7.576;2023-11-21T00:44:48;98349.13;;;11.95;69.20
10587;BME280;5341;47.606;7.576;2023-11-21T00:47:16;98341.06;;;11.95;69.38
10587;BME280;5341;47.606;7.576;2023-11-21T00:49:44;98345.41;;;11.96;69.26
10587;BME280;5341;47.606;7.576;2023-11-21T00:52:15;98351.78;;;11.95;69.42
10587;BME280;5341;47.606;7.576;2023-11-21T00:54:42;98357.38;;;11.93;69.30
10587;BME280;5341;47.606;7.576;2023-11-21T00:57:10;98352.22;;;11.92;69.68
10587;BME280;5341;47.606;7.576;2023-11-21T00:59:40;98343.34;;;11.91;69.99
10587;BME280;5341;47.606;7.576;2023-11-21T01:02:07;98361.28;;;11.91;69.62
10587;BME280;5341;47.606;7.576;2023-11-21T01:04:36;98356.75;;;11.91;69.85
10587;BME280;5341;47.606;7.576;2023-11-21T01:07:04;98358.38;;;11.92;69.38
10587;BME280;5341;47.606;7.576;2023-11-21T01:09:33;98349.53;;;11.92;69.62
10587;BME280;5341;47.606;7.576;2023-11-21T01:12:00;98356.53;;;11.93;69.87
10587;BME280;5341;47.606;7.576;2023-11-21T01:14:28;98351.38;;;11.91;69.49
10587;BME280;5341;47.606;7.576;2023-11-21T01:16:58;98340.66;;;11.91;69.76
10587;BME280;5341;47.606;7.576;2023-11-21T01:19:25;98331.19;;;11.89;69.50
10587;BME280;5341;47.606;7.576;2023-11-21T01:21:54;98334.69;;;11.89;70.15
10587;BME280;5341;47.606;7.576;2023-11-21T01:24:23;98340.88;;;11.90;69.62
10587;BME280;5341;47.606;7.576;2023-11-21T01:26:51;98338.19;;;11.90;69.67
10587;BME280;5341;47.606;7.576;2023-11-21T01:29:19;98327.84;;;11.87;69.73
10587;BME280;5341;47.606;7.576;2023-11-21T01:31:46;98340.25;;;11.88;69.71
10587;BME280;5341;47.606;7.576;2023-11-21T01:34:15;98339.22;;;11.89;70.18
10587;BME280;5341;47.606;7.576;2023-11-21T01:36:45;98338.41;;;11.88;70.00
10587;BME280;5341;47.606;7.576;2023-11-21T01:39:13;98352.63;;;11.89;69.68
10587;BME280;5341;47.606;7.576;2023-11-21T01:41:41;98340.25;;;11.88;69.51
10587;BME280;5341;47.606;7.576;2023-11-21T01:44:10;98345.59;;;11.88;69.68
10587;BME280;5341;47.606;7.576;2023-11-21T01:46:39;98346.44;;;11.88;69.91
10587;BME280;5341;47.606;7.576;2023-11-21T01:49:08;98341.91;;;11.89;69.67
10587;BME280;5341;47.606;7.576;2023-11-21T01:51:41;98333.03;;;11.88;70.03
10587;BME280;5341;47.606;7.576;2023-11-21T01:54:10;98339.22;;;11.89;69.70
10587;BME280;5341;47.606;7.576;2023-11-21T01:56:39;98326.66;;;11.89;69.61
10587;BME280;5341;47.606;7.576;2023-11-21T01:59:07;98320.47;;;11.89;69.64
10587;BME280;5341;47.606;7.576;2023-11-21T02:01:34;98329.31;;;11.89;69.57
10587;BME280;5341;47.606;7.576;2023-11-21T02:04:02;98328.50;;;11.89;70.01
10587;BME280;5341;47.606;7.576;2023-11-21T02:06:30;98332.00;;;11.89;69.72
10587;BME280;5341;47.606;7.576;2023-11-21T02:08:59;98329.72;;;11.86;70.00
10587;BME280;5341;47.606;7.576;2023-11-21T02:11:27;98334.25;;;11.86;69.66
10587;BME280;5341;47.606;7.576;2023-11-21T02:13:53;98334.44;;;11.84;69.76
10587;BME280;5341;47.606;7.576;2023-11-21T02:16:21;98332.78;;;11.83;69.86
10587;BME280;5341;47.606;7.576;2023-11-21T02:18:49;98329.09;;;11.84;69.62
10587;BME280;5341;47.606;7.576;2023-11-21T02:21:17;98330.94;;;11.84;70.20
10587;BME280;5341;47.606;7.576;2023-11-21T02:23:46;98342.47;;;11.84;69.58
10587;BME280;5341;47.606;7.576;2023-11-21T02:26:14;98336.91;;;11.86;69.85
10587;BME280;5341;47.606;7.576;2023-11-21T02:28:42;98337.75;;;11.86;69.68
10587;BME280;5341;47.606;7.576;2023-11-21T02:31:10;98333.22;;;11.87;70.01
10587;BME280;5341;47.606;7.576;2023-11-21T02:33:38;98334.06;;;11.87;69.95
10587;BME280;5341;47.606;7.576;2023-11-21T02:36:06;98335.72;;;11.88;70.15
10587;BME280;5341;47.606;7.576;2023-11-21T02:38:34;98333.03;;;11.88;70.07
10587;BME280;5341;47.606;7.576;2023-11-21T02:41:03;98329.53;;;11.88;70.06
10587;BME280;5341;47.606;7.576;2023-11-21T02:43:32;98327.69;;;11.88;69.97
10587;BME280;5341;47.606;7.576;2023-11-21T02:46:00;98325.00;;;11.88;69.56
10587;BME280;5341;47.606;7.576;2023-11-21T02:48:27;98319.44;;;11.90;69.81
10587;BME280;5341;47.606;7.576;2023-11-21T02:50:57;98317.78;;;11.89;70.13
10587;BME280;5341;47.606;7.576;2023-11-21T02:53:24;98314.28;;;11.88;69.46
10587;BME280;5341;47.606;7.576;2023-11-21T02:55:52;98319.63;;;11.88;69.76
10587;BME280;5341;47.606;7.576;2023-11-21T02:58:21;98316.13;;;11.88;69.81
10587;BME280;5341;47.606;7.576;2023-11-21T03:00:48;98313.44;;;11.88;69.66
10587;BME280;5341;47.606;7.576;2023-11-21T03:03:17;98317.13;;;11.87;69.68
10587;BME280;5341;47.606;7.576;2023-11-21T03:05:45;98310.13;;;11.86;69.59
10587;BME280;5341;47.606;7.576;2023-11-21T03:08:13;98317.34;;;11.85;69.39
10587;BME280;5341;47.606;7.576;2023-11-21T03:10:41;98311.38;;;11.83;70.17
10587;BME280;5341;47.606;7.576;2023-11-21T03:13:09;98311.56;;;11.82;69.55
10587;BME280;5341;47.606;7.576;2023-11-21T03:15:38;98306.41;;;11.80;70.14
10587;BME280;5341;47.606;7.576;2023-11-21T03:18:06;98308.25;;;11.80;69.86
10587;BME280;5341;47.606;7.576;2023-11-21T03:20:34;98306.78;;;11.77;69.80
10587;BME280;5341;47.606;7.576;2023-11-21T03:23:02;98299.78;;;11.76;70.23
10587;BME280;5341;47.606;7.576;2023-11-21T03:25:31;98311.53;;;11.75;69.80
10587;BME280;5341;47.606;7.576;2023-11-21T03:27:58;98311.53;;;11.75;69.71
10587;BME280;5341;47.606;7.576;2023-11-21T03:30:26;98310.50;;;11.76;70.00
10587;BME280;5341;47.606;7.576;2023-11-21T03:32:55;98305.97;;;11.77;70.27
10587;BME280;5341;47.606;7.576;2023-11-21T03:35:23;98307.00;;;11.76;69.61
10587;BME280;5341;47.606;7.576;2023-11-21T03:37:50;98312.34;;;11.76;69.93
10587;BME280;5341;47.606;7.576;2023-11-21T03:40:18;98311.91;;;11.72;69.71
10587;BME280;5341;47.606;7.576;2023-11-21T03:42:47;98312.94;;;11.71;69.70
10587;BME280;5341;47.606;7.576;2023-11-21T03:45:14;98315.63;;;11.71;70.05
10587;BME280;5341;47.606;7.576;2023-11-21T03:47:45;98318.69;;;11.68;70.26
10587;BME280;5341;47.606;7.576;2023-11-21T03:50:14;98318.06;;;11.66;70.23
10587;BME280;5341;47.606;7.576;2023-11-21T03:52:44;98311.06;;;11.65;69.65
10587;BME280;5341;47.606;7.576;2023-11-21T03:55:11;98312.28;;;11.62;69.96
10587;BME280;5341;47.606;7.576;2023-11-21T03:57:42;98319.47;;;11.62;70.50
10587;BME280;5341;47.606;7.576;2023-11-21T04:00:10;98324.84;;;11.62;69.74
10587;BME280;5341;47.606;7.576;2023-11-21T04:02:39;98315.97;;;11.61;70.00
10587;BME280;5341;47.606;7.576;2023-11-21T04:05:06;98317.63;;;11.62;70.16
10587;BME280;5341;47.606;7.576;2023-11-21T04:07:36;98318.66;;;11.61;70.17
10587;BME280;5341;47.606;7.576;2023-11-21T04:10:06;98319.47;;;11.62;70.41
10587;BME280;5341;47.606;7.576;2023-11-21T04:12:34;98326.50;;;11.63;69.99
10587;BME280;5341;47.606;7.576;2023-11-21T04:15:02;98324.66;;;11.63;70.26
10587;BME280;5341;47.606;7.576;2023-11-21T04:17:30;98324.84;;;11.62;69.98
10587;BME280;5341;47.606;7.576;2023-11-21T04:19:58;98339.06;;;11.62;70.36
10587;BME280;5341;47.606;7.576;2023-11-21T04:22:25;98338.88;;;11.64;70.31
10587;BME280;5341;47.606;7.576;2023-11-21T04:24:54;98336.38;;;11.62;70.08
10587;BME280;5341;47.606;7.576;2023-11-21T04:27:22;98332.88;;;11.62;70.10
10587;BME280;5341;47.606;7.576;2023-11-21T04:29:49;98332.69;;;11.63;70.55
10587;BME280;5341;47.606;7.576;2023-11-21T04:32:17;98338.88;;;11.64;70.58
10587;BME280;5341;47.606;7.576;2023-11-21T04:34:44;98348.78;;;11.63;70.23
10587;BME280;5341;47.606;7.576;2023-11-21T04:37:12;98356.81;;;11.63;70.59
10587;BME280;5341;47.606;7.576;2023-11-21T04:39:39;98350.59;;;11.63;70.32
10587;BME280;5341;47.606;7.576;2023-11-21T04:42:08;98346.09;;;11.63;70.57
10587;BME280;5341;47.606;7.576;2023-11-21T04:44:36;98336.38;;;11.62;70.23
10587;BME280;5341;47.606;7.576;2023-11-21T04:47:06;98344.63;;;11.61;70.41
10587;BME280;5341;47.606;7.576;2023-11-21T04:49:34;98336.56;;;11.61;70.42
10587;BME280;5341;47.606;7.576;2023-11-21T04:52:01;98338.63;;;11.59;70.09
10587;BME280;5341;47.606;7.576;2023-11-21T04:54:30;98339.47;;;11.59;70.33
10587;BME280;5341;47.606;7.576;2023-11-21T04:56:58;98336.16;;;11.57;70.39
10587;BME280;5341;47.606;7.576;2023-11-21T04:59:27;98342.53;;;11.56;70.72
10587;BME280;5341;47.606;7.576;2023-11-21T05:01:55;98341.91;;;11.54;70.66
10587;BME280;5341;47.606;7.576;2023-11-21T05:04:23;98338.63;;;11.52;70.22
10587;BME280;5341;47.606;7.576;2023-11-21T05:06:50;98342.50;;;11.50;70.65
10587;BME280;5341;47.606;7.576;2023-11-21T05:09:18;98341.66;;;11.49;70.37
10587;BME280;5341;47.606;7.576;2023-11-21T05:11:46;98341.88;;;11.48;70.61
10587;BME280;5341;47.606;7.576;2023-11-21T05:14:13;98345.56;;;11.47;70.37
10587;BME280;5341;47.606;7.576;2023-11-21T05:16:42;98339.41;;;11.46;70.79
10587;BME280;5341;47.606;7.576;2023-11-21T05:19:10;98341.44;;;11.44;70.18
10587;BME280;5341;47.606;7.576;2023-11-21T05:21:38;98339.81;;;11.43;70.74
10587;BME280;5341;47.606;7.576;2023-11-21T05:24:06;98347.22;;;11.41;70.54
10587;BME280;5341;47.606;7.576;2023-11-21T05:26:35;98345.56;;;11.40;70.22
10587;BME280;5341;47.606;7.576;2023-11-21T05:29:02;98352.56;;;11.41;70.94
10587;BME280;5341;47.606;7.576;2023-11-21T05:31:30;98346.59;;;11.39;70.95
10587;BME280;5341;47.606;7.576;2023-11-21T05:33:59;98344.06;;;11.37;70.45
10587;BME280;5341;47.606;7.576;2023-11-21T05:36:27;98344.06;;;11.37;70.82
10587;BME280;5341;47.606;7.576;2023-11-21T05:38:54;98345.94;;;11.37;71.16
10587;BME280;5341;47.606;7.576;2023-11-21T05:41:21;98346.75;;;11.37;71.21
10587;BME280;5341;47.606;7.576;2023-11-21T05:43:49;98350.47;;;11.36;71.31
10587;BME280;5341;47.606;7.576;2023-11-21T05:46:16;98358.28;;;11.38;70.91
10587;BME280;5341;47.606;7.576;2023-11-21T05:48:44;98362.00;;;11.37;70.74
10587;BME280;5341;47.606;7.576;2023-11-21T05:51:13;98367.34;;;11.37;70.55
10587;BME280;5341;47.606;7.576;2023-11-21T05:53:41;98370.84;;;11.37;71.42
10587;BME280;5341;47.606;7.576;2023-11-21T05:56:08;98367.56;;;11.35;70.96
10587;BME280;5341;47.606;7.576;2023-11-21T05:58:36;98364.88;;;11.35;71.36
10587;BME280;5341;47.606;7.576;2023-11-21T06:01:05;98367.56;;;11.35;71.31
10587;BME280;5341;47.606;7.576;2023-11-21T06:03:35;98370.22;;;11.35;71.16
10587;BME280;5341;47.606;7.576;2023-11-21T06:06:03;98370.22;;;11.35;70.98
10587;BME280;5341;47.606;7.576;2023-11-21T06:08:32;98370.44;;;11.34;71.55
10587;BME280;5341;47.606;7.576;2023-11-21T06:10:59;98374.75;;;11.35;70.96
10587;BME280;5341;47.606;7.576;2023-11-21T06:13:27;98373.53;;;11.37;71.08
10587;BME280;5341;47.606;7.576;2023-11-21T06:15:55;98375.38;;;11.37;71.11
10587;BME280;5341;47.606;7.576;2023-11-21T06:18:22;98380.72;;;11.37;70.93
10587;BME280;5341;47.606;7.576;2023-11-21T06:20:50;98387.56;;;11.39;71.56
10587;BME280;5341;47.606;7.576;2023-11-21T06:23:19;98385.72;;;11.40;71.26
10587;BME280;5341;47.606;7.576;2023-11-21T06:25:47;98384.69;;;11.41;71.26
10587;BME280;5341;47.606;7.576;2023-11-21T06:28:15;98385.53;;;11.41;71.48
10587;BME280;5341;47.606;7.576;2023-11-21T06:30:43;98391.06;;;11.40;71.16
10587;BME280;5341;47.606;7.576;2023-11-21T06:33:11;98389.22;;;11.40;71.15
10587;BME280;5341;47.606;7.576;2023-11-21T06:35:39;98400.56;;;11.42;71.37
10587;BME280;5341;47.606;7.576;2023-11-21T06:38:06;98404.88;;;11.43;71.57
10587;BME280;5341;47.606;7.576;2023-11-21T06:40:35;98409.22;;;11.44;71.45
10587;BME280;5341;47.606;7.576;2023-11-21T06:43:04;98404.88;;;11.43;71.57
10587;BME280;5341;47.606;7.576;2023-11-21T06:45:33;98409.41;;;11.43;71.21
10587;BME280;5341;47.606;7.576;2023-11-21T06:48:00;98411.88;;;11.44;71.35
10587;BME280;5341;47.606;7.576;2023-11-21T06:50:28;98413.75;;;11.44;71.25
10587;BME280;5341;47.606;7.576;2023-11-21T06:52:55;98415.41;;;11.45;70.92
10587;BME280;5341;47.606;7.576;2023-11-21T06:55:23;98417.88;;;11.47;71.28
10587;BME280;5341;47.606;7.576;2023-11-21T06:57:50;98408.19;;;11.45;70.95
10587;BME280;5341;47.606;7.576;2023-11-21T07:00:20;98416.84;;;11.48;71.42
10587;BME280;5341;47.606;7.576;2023-11-21T07:02:48;98424.06;;;11.47;71.38
10587;BME280;5341;47.606;7.576;2023-11-21T07:05:15;98423.44;;;11.45;70.71
10587;BME280;5341;47.606;7.576;2023-11-21T07:07:46;98419.72;;;11.46;71.05
10587;BME280;5341;47.606;7.576;2023-11-21T07:10:14;98424.06;;;11.47;70.91
10587;BME280;5341;47.606;7.576;2023-11-21T07:12:42;98429.41;;;11.47;71.40
10587;BME280;5341;47.606;7.576;2023-11-21T07:15:10;98425.06;;;11.46;71.30
10587;BME280;5341;47.606;7.576;2023-11-21T07:17:39;98428.78;;;11.45;71.08
10587;BME280;5341;47.606;7.576;2023-11-21T07:20:08;98434.13;;;11.45;71.01
10587;BME280;5341;47.606;7.576;2023-11-21T07:22:36;98427.97;;;11.44;71.04
10587;BME280;5341;47.606;7.576;2023-11-21T07:25:04;98429.19;;;11.42;70.77
10587;BME280;5341;47.606;7.576;2023-11-21T07:27:33;98434.34;;;11.43;71.33
10587;BME280;5341;47.606;7.576;2023-11-21T07:30:01;98438.03;;;11.42;71.24
10587;BME280;5341;47.606;7.576;2023-11-21T07:32:31;98435.38;;;11.42;71.13
10587;BME280;5341;47.606;7.576;2023-11-21T07:35:00;98446.69;;;11.44;71.41
10587;BME280;5341;47.606;7.576;2023-11-21T07:37:27;98444.84;;;11.45;71.37
10587;BME280;5341;47.606;7.576;2023-11-21T07:39:55;98445.03;;;11.43;71.35
10587;BME280;5341;47.606;7.576;2023-11-21T07:42:23;98453.91;;;11.44;71.18
10587;BME280;5341;47.606;7.576;2023-11-21T07:44:53;98443.00;;;11.45;71.14
10587;BME280;5341;47.606;7.576;2023-11-21T07:47:21;98450.81;;;11.47;71.10
10587;BME280;5341;47.606;7.576;2023-11-21T07:49:48;98447.13;;;11.48;71.45
10587;BME280;5341;47.606;7.576;2023-11-21T07:52:18;98451.47;;;11.49;71.21
10587;BME280;5341;47.606;7.576;2023-11-21T07:54:47;98448.78;;;11.49;71.47
10587;BME280;5341;47.606;7.576;2023-11-21T07:57:14;98453.75;;;11.52;71.47
10587;BME280;5341;47.606;7.576;2023-11-21T07:59:42;98455.41;;;11.53;71.02
10587;BME280;5341;47.606;7.576;2023-11-21T08:02:09;98456.25;;;11.54;71.27
10587;BME280;5341;47.606;7.576;2023-11-21T08:04:36;98457.06;;;11.54;71.38
10587;BME280;5341;47.606;7.576;2023-11-21T08:07:04;98451.50;;;11.56;70.91
10587;BME280;5341;47.606;7.576;2023-11-21T08:09:33;98449.25;;;11.59;71.53
10587;BME280;5341;47.606;7.576;2023-11-21T08:12:00;98458.75;;;11.62;71.78
10587;BME280;5341;47.606;7.576;2023-11-21T08:14:28;98463.94;;;11.63;71.23
10587;BME280;5341;47.606;7.576;2023-11-21T08:16:56;98470.75;;;11.66;71.99
10587;BME280;5341;47.606;7.576;2023-11-21T08:19:24;98464.16;;;11.68;71.61
10587;BME280;5341;47.606;7.576;2023-11-21T08:21:52;98472.81;;;11.70;71.71
10587;BME280;5341;47.606;7.576;2023-11-21T08:24:21;98470.78;;;11.72;71.70
10587;BME280;5341;47.606;7.576;2023-11-21T08:26:50;98464.38;;;11.73;71.92
10587;BME280;5341;47.606;7.576;2023-11-21T08:29:18;98469.56;;;11.75;71.92
10587;BME280;5341;47.606;7.576;2023-11-21T08:31:45;98463.38;;;11.74;71.92
10587;BME280;5341;47.606;7.576;2023-11-21T08:34:13;98466.03;;;11.74;71.63
10587;BME280;5341;47.606;7.576;2023-11-21T08:36:42;98472.25;;;11.75;71.90
10587;BME280;5341;47.606;7.576;2023-11-21T08:39:10;98477.41;;;11.77;71.92
10587;BME280;5341;47.606;7.576;2023-11-21T08:41:39;98482.41;;;11.80;71.66
10587;BME280;5341;47.606;7.576;2023-11-21T08:44:09;98483.66;;;11.84;72.03
10587;BME280;5341;47.606;7.576;2023-11-21T08:46:36;98486.78;;;11.87;72.09
10587;BME280;5341;47.606;7.576;2023-11-21T08:49:05;98482.06;;;11.89;71.92
10587;BME280;5341;47.606;7.576;2023-11-21T08:51:33;98480.81;;;11.92;72.35
10587;BME280;5341;47.606;7.576;2023-11-21T08:54:00;98476.91;;;11.94;72.65
10587;BME280;5341;47.606;7.576;2023-11-21T08:56:30;98484.34;;;11.99;72.53
10587;BME280;5341;47.606;7.576;2023-11-21T08:58:57;98486.44;;;12.03;72.52
10587;BME280;5341;47.606;7.576;2023-11-21T09:01:29;98489.56;;;12.07;72.61
10587;BME280;5341;47.606;7.576;2023-11-21T09:03:57;98490.19;;;12.09;72.52
10587;BME280;5341;47.606;7.576;2023-11-21T09:06:25;98491.66;;;12.12;72.66
10587;BME280;5341;47.606;7.576;2023-11-21T09:08:52;98497.84;;;12.12;72.67
10587;BME280;5341;47.606;7.576;2023-11-21T09:11:20;98499.50;;;12.13;72.66
10587;BME280;5341;47.606;7.576;2023-11-21T09:13:47;98492.09;;;12.15;72.89
10587;BME280;5341;47.606;7.576;2023-11-21T09:16:15;98498.06;;;12.17;72.48
10587;BME280;5341;47.606;7.576;2023-11-21T09:18:45;98503.22;;;12.19;73.04
10587;BME280;5341;47.606;7.576;2023-11-21T09:21:12;98504.06;;;12.19;72.51
10587;BME280;5341;47.606;7.576;2023-11-21T09:23:40;98508.38;;;12.20;72.49
10587;BME280;5341;47.606;7.576;2023-11-21T09:26:08;98515.19;;;12.23;72.41
10587;BME280;5341;47.606;7.576;2023-11-21T09:28:37;98507.81;;;12.25;73.02
10587;BME280;5341;47.606;7.576;2023-11-21T09:31:05;98516.47;;;12.27;72.43
10587;BME280;5341;47.606;7.576;2023-11-21T09:33:34;98512.97;;;12.26;72.38
10587;BME280;5341;47.606;7.576;2023-11-21T09:36:10;98510.91;;;12.28;72.56
10587;BME280;5341;47.606;7.576;2023-11-21T09:38:38;98507.00;;;12.31;72.72
10587;BME280;5341;47.606;7.576;2023-11-21T09:41:13;98509.91;;;12.36;72.41
10587;BME280;5341;47.606;7.576;2023-11-21T09:43:44;98514.69;;;12.41;72.58
10587;BME280;5341;47.606;7.576;2023-11-21T09:46:13;98507.66;;;12.46;73.19
10587;BME280;5341;47.606;7.576;2023-11-21T09:48:47;98508.75;;;12.52;72.57
10587;BME280;5341;47.606;7.576;2023-11-21T09:51:20;98516.38;;;12.55;72.33
10587;BME280;5341;47.606;7.576;2023-11-21T09:53:50;98520.09;;;12.54;71.64
10587;BME280;5341;47.606;7.576;2023-11-21T09:56:19;98525.47;;;12.54;71.59
10587;BME280;5341;47.606;7.576;2023-11-21T09:58:52;98525.47;;;12.54;71.56
10587;BME280;5341;47.606;7.576;2023-11-21T10:01:23;98527.09;;;12.55;71.18
10587;BME280;5341;47.606;7.576;2023-11-21T10:03:53;98522.97;;;12.59;71.25
10587;BME280;5341;47.606;7.576;2023-11-21T10:06:24;98524.88;;;12.65;71.50
10587;BME280;5341;47.606;7.576;2023-11-21T10:08:53;98524.88;;;12.72;71.18
10587;BME280;5341;47.606;7.576;2023-11-21T10:11:24;98520.38;;;12.79;71.04
10587;BME280;5341;47.606;7.576;2023-11-21T10:13:54;98515.22;;;12.84;70.58
10587;BME280;5341;47.606;7.576;2023-11-21T10:16:25;98519.16;;;12.88;70.15
10587;BME280;5341;47.606;7.576;2023-11-21T10:18:53;98515.25;;;12.90;69.87
10587;BME280;5341;47.606;7.576;2023-11-21T10:21:23;98520.00;;;12.95;70.59
10587;BME280;5341;47.606;7.576;2023-11-21T10:23:52;98515.69;;;13.01;70.42
10587;BME280;5341;47.606;7.576;2023-11-21T10:26:22;98524.97;;;13.05;69.90
10587;BME280;5341;47.606;7.576;2023-11-21T10:28:57;98522.50;;;13.03;69.48
10587;BME280;5341;47.606;7.576;2023-11-21T10:31:27;98523.31;;;13.04;69.50
10587;BME280;5341;47.606;7.576;2023-11-21T10:33:57;98519.59;;;13.05;69.50
10587;BME280;5341;47.606;7.576;2023-11-21T10:36:38;98513.63;;;13.03;69.29
10587;BME280;5341;47.606;7.576;2023-11-21T10:39:06;98518.56;;;12.99;68.84
10587;BME280;5341;47.606;7.576;2023-11-21T10:41:33;98510.72;;;12.98;68.92
10587;BME280;5341;47.606;7.576;2023-11-21T10:44:01;98521.47;;;12.98;68.78
10587;BME280;5341;47.606;7.576;2023-11-21T10:46:30;98515.66;;;12.94;68.77
10587;BME280;5341;47.606;7.576;2023-11-21T10:48:57;98517.72;;;12.92;68.64
10587;BME280;5341;47.606;7.576;2023-11-21T10:51:25;98520.63;;;12.90;68.93
10587;BME280;5341;47.606;7.576;2023-11-21T10:53:55;98520.81;;;12.89;68.75
10587;BME280;5341;47.606;7.576;2023-11-21T10:56:26;98522.69;;;12.88;68.95
10587;BME280;5341;47.606;7.576;2023-11-21T10:58:56;98521.84;;;12.88;68.65
10587;BME280;5341;47.606;7.576;2023-11-21T11:01:26;98516.91;;;12.85;68.49
10587;BME280;5341;47.606;7.576;2023-11-21T11:03:56;98521.63;;;12.83;68.87
10587;BME280;5341;47.606;7.576;2023-11-21T11:06:26;98519.97;;;12.82;68.72
10587;BME280;5341;47.606;7.576;2023-11-21T11:08:56;98522.84;;;12.80;69.00
10587;BME280;5341;47.606;7.576;2023-11-21T11:11:25;98520.38;;;12.79;68.72
10587;BME280;5341;47.606;7.576;2023-11-21T11:13:53;98521.63;;;12.76;68.80
10587;BME280;5341;47.606;7.576;2023-11-21T11:16:21;98520.78;;;12.76;69.11
10587;BME280;5341;47.606;7.576;2023-11-21T11:18:50;98523.69;;;12.74;68.99
10587;BME280;5341;47.606;7.576;2023-11-21T11:21:25;98527.38;;;12.73;69.26
10587;BME280;5341;47.606;7.576;2023-11-21T11:24:10;98522.84;;;12.74;69.14
10587;BME280;5341;47.606;7.576;2023-11-21T11:26:46;98524.72;;;12.73;69.47
10587;BME280;5341;47.606;7.576;2023-11-21T11:29:25;98537.09;;;12.74;69.12
10587;BME280;5341;47.606;7.576;2023-11-21T11:32:05;98538.94;;;12.74;69.27
10587;BME280;5341;47.606;7.576;2023-11-21T11:34:41;98533.59;;;12.74;69.33
10587;BME280;5341;47.606;7.576;2023-11-21T11:37:12;98524.88;;;12.72;69.41
10587;BME280;5341;47.606;7.576;2023-11-21T11:39:42;98536.28;;;12.74;69.38
10587;BME280;5341;47.606;7.576;2023-11-21T11:42:13;98538.94;;;12.74;69.76
10587;BME280;5341;47.606;7.576;2023-11-21T11:44:50;98527.19;;;12.75;69.54
10587;BME280;5341;47.606;7.576;2023-11-21T11:47:24;98532.56;;;12.75;69.51
10587;BME280;5341;47.606;7.576;2023-11-21T11:50:02;98526.16;;;12.76;69.61
10587;BME280;5341;47.606;7.576;2023-11-21T11:52:40;98534.19;;;12.76;69.76
10587;BME280;5341;47.606;7.576;2023-11-21T11:55:11;98533.16;;;12.77;69.94
10587;BME280;5341;47.606;7.576;2023-11-21T11:57:40;98533.38;;;12.75;70.18
10587;BME280;5341;47.606;7.576;2023-11-21T12:00:09;98534.41;;;12.74;70.08
10587;BME280;5341;47.606;7.576;2023-11-21T12:02:38;98547.81;;;12.74;70.39
10587;BME280;5341;47.606;7.576;2023-11-21T12:05:11;98543.50;;;12.73;70.32
10587;BME280;5341;47.606;7.576;2023-11-21T12:07:42;98538.31;;;12.72;69.97
10587;BME280;5341;47.606;7.576;2023-11-21T12:10:13;98546.34;;;12.72;70.06
10587;BME280;5341;47.606;7.576;2023-11-21T12:12:45;98538.50;;;12.70;70.30
10587;BME280;5341;47.606;7.576;2023-11-21T12:15:13;98542.22;;;12.69;70.16
10587;BME280;5341;47.606;7.576;2023-11-21T12:17:41;98542.22;;;12.69;70.29
10587;BME280;5341;47.606;7.576;2023-11-21T12:20:11;98542.22;;;12.69;70.47
10587;BME280;5341;47.606;7.576;2023-11-21T12:22:44;98544.91;;;12.69;70.71
10587;BME280;5341;47.606;7.576;2023-11-21T12:25:15;98557.28;;;12.70;70.33
10587;BME280;5341;47.606;7.576;2023-11-21T12:27:45;98556.47;;;12.70;70.88
10587;BME280;5341;47.606;7.576;2023-11-21T12:30:17;98559.16;;;12.70;70.87
10587;BME280;5341;47.606;7.576;2023-11-21T12:32:45;98561.81;;;12.70;70.75
10587;BME280;5341;47.606;7.576;2023-11-21T12:35:13;98558.09;;;12.71;71.18
10587;BME280;5341;47.606;7.576;2023-11-21T12:37:42;98563.47;;;12.71;71.11
10587;BME280;5341;47.606;7.576;2023-11-21T12:40:10;98567.81;;;12.72;71.11
10587;BME280;5341;47.606;7.576;2023-11-21T12:42:43;98571.34;;;12.72;70.94
10587;BME280;5341;47.606;7.576;2023-11-21T12:45:19;98573.19;;;12.72;71.18
10587;BME280;5341;47.606;7.576;2023-11-21T12:47:48;98568.66;;;12.72;71.15
10587;BME280;5341;47.606;7.576;2023-11-21T12:50:19;98567.63;;;12.73;71.26
10587;BME280;5341;47.606;7.576;2023-11-21T12:52:50;98563.94;;;12.74;71.24
10587;BME280;5341;47.606;7.576;2023-11-21T12:55:20;98573.63;;;12.75;71.05
10587;BME280;5341;47.606;7.576;2023-11-21T12:57:50;98567.44;;;12.75;70.80
10587;BME280;5341;47.606;7.576;2023-11-21T13:00:28;98567.44;;;12.75;71.10
10587;BME280;5341;47.606;7.576;2023-11-21T13:02:57;98573.63;;;12.75;70.65
10587;BME280;5341;47.606;7.576;2023-11-21T13:05:26;98578.16;;;12.75;71.12
10587;BME280;5341;47.606;7.576;2023-11-21T13:07:54;98568.25;;;12.75;70.84
10587;BME280;5341;47.606;7.576;2023-11-21T13:10:24;98568.25;;;12.75;71.32
10587;BME280;5341;47.606;7.576;2023-11-21T13:12:57;98563.72;;;12.76;71.13
10587;BME280;5341;47.606;7.576;2023-11-21T13:15:26;98569.91;;;12.76;71.01
10587;BME280;5341;47.606;7.576;2023-11-21T13:17:54;98558.16;;;12.77;70.94